sensor_id;sensor_type;location;lat;lon;timestamp;P1;durP1;ratioP1;P2;durP2;ratioP2
18526;SDS011;9393;42.158;24.748;2023-04-15T00:00:07;8.23;;;4.43;;
18526;SDS011;9393;42.158;24.748;2023-04-15T00:03:16;6.47;;;4.77;;
18526;SDS011;9393;42.158;24.748;2023-04-15T00:06:20;8.00;;;4.10;;
18526;SDS011;9393;42.158;24.748;2023-04-15T00:09:24;7.33;;;4.80;;
18526;SDS011;9393;42.158;24.748;2023-04-15T00:12:27;6.93;;;5.10;;
18526;SDS011;9393;42.158;24.748;2023-04-15T00:15:31;7.97;;;4.70;;
18526;SDS011;9393;42.158;24.748;2023-04-15T00:18:36;8.23;;;5.17;;
18526;SDS011;9393;42.158;24.748;2023-04-15T00:21:40;7.03;;;4.60;;
18526;SDS011;9393;42.158;24.748;2023-04-15T00:24:43;7.83;;;4.60;;
18526;SDS011;9393;42.158;24.748;2023-04-15T00:27:47;9.23;;;5.03;;
18526;SDS011;9393;42.158;24.748;2023-04-15T00:30:50;6.63;;;4.40;;
18526;SDS011;9393;42.158;24.748;2023-04-15T00:33:56;7.23;;;4.53;;
18526;SDS011;9393;42.158;24.748;2023-04-15T00:37:00;9.10;;;5.00;;
18526;SDS011;9393;42.158;24.748;2023-04-15T00:40:04;7.00;;;4.63;;
18526;SDS011;9393;42.158;24.748;2023-04-15T00:43:09;7.97;;;5.03;;
18526;SDS011;9393;42.158;24.748;2023-04-15T00:46:13;7.83;;;5.37;;
18526;SDS011;9393;42.158;24.748;2023-04-15T00:49:19;7.37;;;5.07;;
18526;SDS011;9393;42.158;24.748;2023-04-15T00:52:24;7.37;;;5.30;;
18526;SDS011;9393;42.158;24.748;2023-04-15T00:55:28;9.70;;;5.57;;
18526;SDS011;9393;42.158;24.748;2023-04-15T00:58:32;6.17;;;4.70;;
18526;SDS011;9393;42.158;24.748;2023-04-15T01:01:35;6.93;;;4.37;;
18526;SDS011;9393;42.158;24.748;2023-04-15T01:04:41;7.20;;;4.93;;
18526;SDS011;9393;42.158;24.748;2023-04-15T01:07:45;7.53;;;4.80;;
18526;SDS011;9393;42.158;24.748;2023-04-15T01:10:49;9.40;;;5.17;;
18526;SDS011;9393;42.158;24.748;2023-04-15T01:13:53;9.27;;;5.30;;
18526;SDS011;9393;42.158;24.748;2023-04-15T01:16:58;9.53;;;4.77;;
18526;SDS011;9393;42.158;24.748;2023-04-15T01:20:04;8.17;;;5.27;;
18526;SDS011;9393;42.158;24.748;2023-04-15T01:23:11;6.70;;;4.97;;
18526;SDS011;9393;42.158;24.748;2023-04-15T01:26:16;8.20;;;5.10;;
18526;SDS011;9393;42.158;24.748;2023-04-15T01:29:20;8.57;;;5.20;;
18526;SDS011;9393;42.158;24.748;2023-04-15T01:32:24;8.30;;;4.47;;
18526;SDS011;9393;42.158;24.748;2023-04-15T01:35:28;8.07;;;4.70;;
18526;SDS011;9393;42.158;24.748;2023-04-15T01:38:31;9.17;;;4.77;;
18526;SDS011;9393;42.158;24.748;2023-04-15T01:41:36;6.43;;;4.73;;
18526;SDS011;9393;42.158;24.748;2023-04-15T01:44:41;7.87;;;4.60;;
18526;SDS011;9393;42.158;24.748;2023-04-15T01:47:45;7.27;;;4.33;;
18526;SDS011;9393;42.158;24.748;2023-04-15T01:50:50;6.37;;;4.10;;
18526;SDS011;9393;42.158;24.748;2023-04-15T01:53:55;8.50;;;4.13;;
18526;SDS011;9393;42.158;24.748;2023-04-15T01:56:59;5.17;;;3.83;;
18526;SDS011;9393;42.158;24.748;2023-04-15T02:00:04;6.27;;;3.63;;
18526;SDS011;9393;42.158;24.748;2023-04-15T02:03:16;5.70;;;3.97;;
18526;SDS011;9393;42.158;24.748;2023-04-15T02:06:20;8.00;;;4.13;;
18526;SDS011;9393;42.158;24.748;2023-04-15T02:09:23;5.93;;;3.77;;
18526;SDS011;9393;42.158;24.748;2023-04-15T02:12:28;6.27;;;3.10;;
18526;SDS011;9393;42.158;24.748;2023-04-15T02:15:32;5.70;;;3.20;;
18526;SDS011;9393;42.158;24.748;2023-04-15T02:18:35;6.13;;;3.10;;
18526;SDS011;9393;42.158;24.748;2023-04-15T02:21:39;5.30;;;3.07;;
18526;SDS011;9393;42.158;24.748;2023-04-15T02:24:43;5.07;;;3.20;;
18526;SDS011;9393;42.158;24.748;2023-04-15T02:27:49;4.53;;;2.83;;
18526;SDS011;9393;42.158;24.748;2023-04-15T02:30:52;4.00;;;3.10;;
18526;SDS011;9393;42.158;24.748;2023-04-15T02:33:58;5.17;;;3.03;;
18526;SDS011;9393;42.158;24.748;2023-04-15T02:37:04;4.90;;;3.03;;
18526;SDS011;9393;42.158;24.748;2023-04-15T02:40:09;3.87;;;3.00;;
18526;SDS011;9393;42.158;24.748;2023-04-15T02:43:15;4.03;;;2.70;;
18526;SDS011;9393;42.158;24.748;2023-04-15T02:46:19;4.57;;;2.80;;
18526;SDS011;9393;42.158;24.748;2023-04-15T02:49:23;5.87;;;2.83;;
18526;SDS011;9393;42.158;24.748;2023-04-15T02:52:27;4.77;;;3.00;;
18526;SDS011;9393;42.158;24.748;2023-04-15T02:55:31;4.03;;;2.70;;
18526;SDS011;9393;42.158;24.748;2023-04-15T02:58:36;3.53;;;2.43;;
18526;SDS011;9393;42.158;24.748;2023-04-15T03:01:40;4.47;;;2.60;;
18526;SDS011;9393;42.158;24.748;2023-04-15T03:04:43;8.47;;;2.50;;
18526;SDS011;9393;42.158;24.748;2023-04-15T03:07:47;5.47;;;2.63;;
18526;SDS011;9393;42.158;24.748;2023-04-15T03:10:51;3.63;;;2.37;;
18526;SDS011;9393;42.158;24.748;2023-04-15T03:13:57;4.27;;;2.50;;
18526;SDS011;9393;42.158;24.748;2023-04-15T03:17:06;2.77;;;2.30;;
18526;SDS011;9393;42.158;24.748;2023-04-15T03:20:12;4.77;;;2.50;;
18526;SDS011;9393;42.158;24.748;2023-04-15T03:23:16;4.60;;;2.67;;
18526;SDS011;9393;42.158;24.748;2023-04-15T03:26:23;4.77;;;2.57;;
18526;SDS011;9393;42.158;24.748;2023-04-15T03:29:34;5.20;;;2.83;;
18526;SDS011;9393;42.158;24.748;2023-04-15T03:32:37;3.70;;;2.80;;
18526;SDS011;9393;42.158;24.748;2023-04-15T03:35:42;4.00;;;2.73;;
18526;SDS011;9393;42.158;24.748;2023-04-15T03:38:46;3.50;;;2.27;;
18526;SDS011;9393;42.158;24.748;2023-04-15T03:41:50;6.10;;;2.83;;
18526;SDS011;9393;42.158;24.748;2023-04-15T03:44:55;5.37;;;2.90;;
18526;SDS011;9393;42.158;24.748;2023-04-15T03:47:58;4.87;;;2.70;;
18526;SDS011;9393;42.158;24.748;2023-04-15T03:51:05;4.20;;;2.53;;
18526;SDS011;9393;42.158;24.748;2023-04-15T03:54:08;4.70;;;2.87;;
18526;SDS011;9393;42.158;24.748;2023-04-15T03:57:12;4.17;;;2.57;;
18526;SDS011;9393;42.158;24.748;2023-04-15T04:00:17;3.97;;;2.90;;
18526;SDS011;9393;42.158;24.748;2023-04-15T04:03:21;4.07;;;2.90;;
18526;SDS011;9393;42.158;24.748;2023-04-15T04:06:25;4.93;;;3.07;;
18526;SDS011;9393;42.158;24.748;2023-04-15T04:09:28;4.30;;;2.60;;
18526;SDS011;9393;42.158;24.748;2023-04-15T04:12:32;5.00;;;2.80;;
18526;SDS011;9393;42.158;24.748;2023-04-15T04:15:37;4.00;;;2.57;;
18526;SDS011;9393;42.158;24.748;2023-04-15T04:18:40;4.00;;;2.80;;
18526;SDS011;9393;42.158;24.748;2023-04-15T04:21:44;4.07;;;3.07;;
18526;SDS011;9393;42.158;24.748;2023-04-15T04:24:48;4.23;;;2.90;;
18526;SDS011;9393;42.158;24.748;2023-04-15T04:27:51;7.10;;;3.00;;
18526;SDS011;9393;42.158;24.748;2023-04-15T04:30:56;4.20;;;2.37;;
18526;SDS011;9393;42.158;24.748;2023-04-15T04:34:00;5.80;;;2.87;;
18526;SDS011;9393;42.158;24.748;2023-04-15T04:37:03;3.47;;;2.37;;
18526;SDS011;9393;42.158;24.748;2023-04-15T04:40:08;5.33;;;2.53;;
18526;SDS011;9393;42.158;24.748;2023-04-15T04:43:12;3.63;;;2.40;;
18526;SDS011;9393;42.158;24.748;2023-04-15T04:46:18;3.50;;;2.50;;
18526;SDS011;9393;42.158;24.748;2023-04-15T04:49:22;4.33;;;2.40;;
18526;SDS011;9393;42.158;24.748;2023-04-15T04:52:26;3.87;;;2.43;;
18526;SDS011;9393;42.158;24.748;2023-04-15T04:55:29;6.67;;;3.10;;
18526;SDS011;9393;42.158;24.748;2023-04-15T04:58:33;5.47;;;2.77;;
18526;SDS011;9393;42.158;24.748;2023-04-15T05:01:38;4.03;;;2.90;;
18526;SDS011;9393;42.158;24.748;2023-04-15T05:04:42;5.57;;;3.10;;
18526;SDS011;9393;42.158;24.748;2023-04-15T05:07:46;4.20;;;2.37;;
18526;SDS011;9393;42.158;24.748;2023-04-15T05:10:51;8.23;;;2.63;;
18526;SDS011;9393;42.158;24.748;2023-04-15T05:13:54;5.23;;;2.60;;
18526;SDS011;9393;42.158;24.748;2023-04-15T05:17:00;4.30;;;2.40;;
18526;SDS011;9393;42.158;24.748;2023-04-15T05:20:04;7.53;;;3.20;;
18526;SDS011;9393;42.158;24.748;2023-04-15T05:23:09;3.57;;;2.50;;
18526;SDS011;9393;42.158;24.748;2023-04-15T05:26:12;7.37;;;3.10;;
18526;SDS011;9393;42.158;24.748;2023-04-15T05:29:16;6.83;;;2.70;;
18526;SDS011;9393;42.158;24.748;2023-04-15T05:32:21;5.53;;;2.90;;
18526;SDS011;9393;42.158;24.748;2023-04-15T05:35:25;5.87;;;3.30;;
18526;SDS011;9393;42.158;24.748;2023-04-15T05:38:29;4.30;;;2.77;;
18526;SDS011;9393;42.158;24.748;2023-04-15T05:41:33;5.57;;;2.80;;
18526;SDS011;9393;42.158;24.748;2023-04-15T05:44:37;6.33;;;2.47;;
18526;SDS011;9393;42.158;24.748;2023-04-15T05:47:42;4.67;;;2.50;;
18526;SDS011;9393;42.158;24.748;2023-04-15T05:50:45;6.90;;;2.60;;
18526;SDS011;9393;42.158;24.748;2023-04-15T05:53:49;3.63;;;2.00;;
18526;SDS011;9393;42.158;24.748;2023-04-15T05:56:53;7.07;;;2.43;;
18526;SDS011;9393;42.158;24.748;2023-04-15T05:59:57;4.73;;;2.20;;
18526;SDS011;9393;42.158;24.748;2023-04-15T06:03:02;4.07;;;2.23;;
18526;SDS011;9393;42.158;24.748;2023-04-15T06:06:07;9.17;;;2.30;;
18526;SDS011;9393;42.158;24.748;2023-04-15T06:09:10;6.40;;;2.37;;
18526;SDS011;9393;42.158;24.748;2023-04-15T06:12:14;2.27;;;2.07;;
18526;SDS011;9393;42.158;24.748;2023-04-15T06:15:18;4.37;;;2.10;;
18526;SDS011;9393;42.158;24.748;2023-04-15T06:18:23;3.20;;;2.17;;
18526;SDS011;9393;42.158;24.748;2023-04-15T06:21:27;4.20;;;2.17;;
18526;SDS011;9393;42.158;24.748;2023-04-15T06:24:32;4.20;;;2.30;;
18526;SDS011;9393;42.158;24.748;2023-04-15T06:27:37;5.07;;;2.30;;
18526;SDS011;9393;42.158;24.748;2023-04-15T06:30:42;3.73;;;2.43;;
18526;SDS011;9393;42.158;24.748;2023-04-15T06:33:47;7.23;;;1.97;;
18526;SDS011;9393;42.158;24.748;2023-04-15T06:36:52;4.70;;;2.10;;
18526;SDS011;9393;42.158;24.748;2023-04-15T06:39:56;3.63;;;2.10;;
18526;SDS011;9393;42.158;24.748;2023-04-15T06:43:00;6.13;;;2.20;;
18526;SDS011;9393;42.158;24.748;2023-04-15T06:46:05;3.50;;;2.00;;
18526;SDS011;9393;42.158;24.748;2023-04-15T06:49:10;6.53;;;2.17;;
18526;SDS011;9393;42.158;24.748;2023-04-15T06:52:14;4.50;;;2.00;;
18526;SDS011;9393;42.158;24.748;2023-04-15T06:55:18;5.07;;;2.37;;
18526;SDS011;9393;42.158;24.748;2023-04-15T06:58:22;7.13;;;2.50;;
18526;SDS011;9393;42.158;24.748;2023-04-15T07:01:26;4.23;;;2.03;;
18526;SDS011;9393;42.158;24.748;2023-04-15T07:04:32;7.97;;;2.33;;
18526;SDS011;9393;42.158;24.748;2023-04-15T07:07:36;5.03;;;2.50;;
18526;SDS011;9393;42.158;24.748;2023-04-15T07:10:39;4.40;;;2.70;;
18526;SDS011;9393;42.158;24.748;2023-04-15T07:13:43;5.90;;;2.47;;
18526;SDS011;9393;42.158;24.748;2023-04-15T07:16:47;6.47;;;3.10;;
18526;SDS011;9393;42.158;24.748;2023-04-15T07:19:52;7.27;;;3.20;;
18526;SDS011;9393;42.158;24.748;2023-04-15T07:22:56;4.57;;;2.77;;
18526;SDS011;9393;42.158;24.748;2023-04-15T07:26:00;5.17;;;2.70;;
18526;SDS011;9393;42.158;24.748;2023-04-15T07:29:04;3.90;;;2.60;;
18526;SDS011;9393;42.158;24.748;2023-04-15T07:32:08;7.67;;;4.17;;
18526;SDS011;9393;42.158;24.748;2023-04-15T07:35:14;5.90;;;3.80;;
18526;SDS011;9393;42.158;24.748;2023-04-15T07:38:17;6.60;;;3.67;;
18526;SDS011;9393;42.158;24.748;2023-04-15T07:41:22;7.17;;;4.73;;
18526;SDS011;9393;42.158;24.748;2023-04-15T07:44:26;8.30;;;5.30;;
18526;SDS011;9393;42.158;24.748;2023-04-15T07:47:30;8.87;;;5.00;;
18526;SDS011;9393;42.158;24.748;2023-04-15T07:50:35;9.03;;;4.97;;
18526;SDS011;9393;42.158;24.748;2023-04-15T07:53:39;9.10;;;4.40;;
18526;SDS011;9393;42.158;24.748;2023-04-15T07:56:43;8.87;;;5.17;;
18526;SDS011;9393;42.158;24.748;2023-04-15T07:59:47;10.00;;;5.60;;
18526;SDS011;9393;42.158;24.748;2023-04-15T08:02:51;6.40;;;5.23;;
18526;SDS011;9393;42.158;24.748;2023-04-15T08:05:56;9.70;;;4.53;;
18526;SDS011;9393;42.158;24.748;2023-04-15T08:09:00;12.47;;;4.70;;
18526;SDS011;9393;42.158;24.748;2023-04-15T08:12:04;6.60;;;3.57;;
18526;SDS011;9393;42.158;24.748;2023-04-15T08:15:10;6.77;;;3.80;;
18526;SDS011;9393;42.158;24.748;2023-04-15T08:18:14;6.60;;;4.23;;
18526;SDS011;9393;42.158;24.748;2023-04-15T08:21:19;8.53;;;4.47;;
18526;SDS011;9393;42.158;24.748;2023-04-15T08:24:23;8.50;;;3.50;;
18526;SDS011;9393;42.158;24.748;2023-04-15T08:27:28;6.50;;;3.70;;
18526;SDS011;9393;42.158;24.748;2023-04-15T08:30:32;6.75;;;3.10;;
18526;SDS011;9393;42.158;24.748;2023-04-15T08:33:36;5.90;;;3.10;;
18526;SDS011;9393;42.158;24.748;2023-04-15T08:36:41;6.83;;;3.57;;
18526;SDS011;9393;42.158;24.748;2023-04-15T08:39:45;9.83;;;4.50;;
18526;SDS011;9393;42.158;24.748;2023-04-15T08:42:49;8.97;;;4.63;;
18526;SDS011;9393;42.158;24.748;2023-04-15T08:45:56;8.40;;;4.43;;
18526;SDS011;9393;42.158;24.748;2023-04-15T08:49:02;8.10;;;3.87;;
18526;SDS011;9393;42.158;24.748;2023-04-15T08:52:09;6.80;;;3.57;;
18526;SDS011;9393;42.158;24.748;2023-04-15T08:55:13;8.10;;;3.67;;
18526;SDS011;9393;42.158;24.748;2023-04-15T08:58:18;5.83;;;3.87;;
18526;SDS011;9393;42.158;24.748;2023-04-15T09:01:22;7.47;;;3.97;;
18526;SDS011;9393;42.158;24.748;2023-04-15T09:04:26;10.20;;;4.17;;
18526;SDS011;9393;42.158;24.748;2023-04-15T09:07:33;6.27;;;3.50;;
18526;SDS011;9393;42.158;24.748;2023-04-15T09:10:37;11.93;;;4.80;;
18526;SDS011;9393;42.158;24.748;2023-04-15T09:13:41;5.53;;;3.00;;
18526;SDS011;9393;42.158;24.748;2023-04-15T09:16:57;4.55;;;3.08;;
18526;SDS011;9393;42.158;24.748;2023-04-15T09:20:07;7.22;;;3.50;;
18526;SDS011;9393;42.158;24.748;2023-04-15T09:23:14;4.95;;;2.80;;
18526;SDS011;9393;42.158;24.748;2023-04-15T09:26:18;6.80;;;2.78;;
18526;SDS011;9393;42.158;24.748;2023-04-15T09:29:23;6.35;;;3.45;;
18526;SDS011;9393;42.158;24.748;2023-04-15T09:32:27;8.82;;;3.00;;
18526;SDS011;9393;42.158;24.748;2023-04-15T09:35:32;7.28;;;3.25;;
18526;SDS011;9393;42.158;24.748;2023-04-15T09:38:37;7.47;;;3.50;;
18526;SDS011;9393;42.158;24.748;2023-04-15T09:42:06;6.30;;;2.80;;
18526;SDS011;9393;42.158;24.748;2023-04-15T09:45:10;6.90;;;2.63;;
18526;SDS011;9393;42.158;24.748;2023-04-15T09:48:15;8.05;;;2.67;;
18526;SDS011;9393;42.158;24.748;2023-04-15T09:51:31;8.45;;;2.78;;
18526;SDS011;9393;42.158;24.748;2023-04-15T09:54:38;6.65;;;2.72;;
18526;SDS011;9393;42.158;24.748;2023-04-15T09:57:42;4.57;;;2.50;;
18526;SDS011;9393;42.158;24.748;2023-04-15T10:00:48;4.78;;;2.47;;
18526;SDS011;9393;42.158;24.748;2023-04-15T10:03:53;5.50;;;2.45;;
18526;SDS011;9393;42.158;24.748;2023-04-15T10:07:00;4.40;;;2.30;;
18526;SDS011;9393;42.158;24.748;2023-04-15T10:10:08;4.35;;;1.88;;
18526;SDS011;9393;42.158;24.748;2023-04-15T10:13:15;4.30;;;2.10;;
18526;SDS011;9393;42.158;24.748;2023-04-15T10:16:20;5.38;;;2.30;;
18526;SDS011;9393;42.158;24.748;2023-04-15T10:19:25;3.78;;;2.25;;
18526;SDS011;9393;42.158;24.748;2023-04-15T10:22:32;5.20;;;1.95;;
18526;SDS011;9393;42.158;24.748;2023-04-15T10:25:38;6.18;;;3.25;;
18526;SDS011;9393;42.158;24.748;2023-04-15T10:28:43;5.90;;;3.40;;
18526;SDS011;9393;42.158;24.748;2023-04-15T10:31:48;7.00;;;3.50;;
18526;SDS011;9393;42.158;24.748;2023-04-15T10:34:52;8.13;;;4.32;;
18526;SDS011;9393;42.158;24.748;2023-04-15T10:37:57;8.13;;;5.35;;
18526;SDS011;9393;42.158;24.748;2023-04-15T10:41:15;4.82;;;4.13;;
18526;SDS011;9393;42.158;24.748;2023-04-15T10:44:22;7.55;;;4.70;;
18526;SDS011;9393;42.158;24.748;2023-04-15T10:47:26;8.02;;;4.85;;
18526;SDS011;9393;42.158;24.748;2023-04-15T10:50:30;9.38;;;5.10;;
18526;SDS011;9393;42.158;24.748;2023-04-15T10:53:34;7.20;;;4.70;;
18526;SDS011;9393;42.158;24.748;2023-04-15T10:56:42;7.43;;;4.38;;
18526;SDS011;9393;42.158;24.748;2023-04-15T10:59:59;6.32;;;4.45;;
18526;SDS011;9393;42.158;24.748;2023-04-15T11:03:07;5.75;;;4.30;;
18526;SDS011;9393;42.158;24.748;2023-04-15T11:06:13;7.97;;;4.80;;
18526;SDS011;9393;42.158;24.748;2023-04-15T11:09:29;6.55;;;4.43;;
18526;SDS011;9393;42.158;24.748;2023-04-15T11:12:36;4.72;;;3.35;;
18526;SDS011;9393;42.158;24.748;2023-04-15T11:15:40;6.18;;;3.13;;
18526;SDS011;9393;42.158;24.748;2023-04-15T11:18:52;6.00;;;3.72;;
18526;SDS011;9393;42.158;24.748;2023-04-15T11:21:56;4.55;;;3.40;;
18526;SDS011;9393;42.158;24.748;2023-04-15T11:25:08;6.18;;;3.70;;
18526;SDS011;9393;42.158;24.748;2023-04-15T11:28:13;5.40;;;3.72;;
18526;SDS011;9393;42.158;24.748;2023-04-15T11:31:17;6.70;;;4.15;;
18526;SDS011;9393;42.158;24.748;2023-04-15T11:34:21;9.10;;;4.20;;
18526;SDS011;9393;42.158;24.748;2023-04-15T11:37:28;6.60;;;3.45;;
18526;SDS011;9393;42.158;24.748;2023-04-15T11:40:34;6.72;;;3.85;;
18526;SDS011;9393;42.158;24.748;2023-04-15T11:43:39;6.18;;;3.90;;
18526;SDS011;9393;42.158;24.748;2023-04-15T11:46:43;5.43;;;3.20;;
18526;SDS011;9393;42.158;24.748;2023-04-15T11:49:47;6.03;;;3.92;;
18526;SDS011;9393;42.158;24.748;2023-04-15T11:52:51;8.63;;;3.25;;
18526;SDS011;9393;42.158;24.748;2023-04-15T11:55:55;6.00;;;3.63;;
18526;SDS011;9393;42.158;24.748;2023-04-15T11:59:01;8.45;;;3.58;;
18526;SDS011;9393;42.158;24.748;2023-04-15T12:02:10;7.25;;;3.78;;
18526;SDS011;9393;42.158;24.748;2023-04-15T12:05:15;5.25;;;3.55;;
18526;SDS011;9393;42.158;24.748;2023-04-15T12:08:19;7.53;;;3.53;;
18526;SDS011;9393;42.158;24.748;2023-04-15T12:11:26;5.80;;;2.97;;
18526;SDS011;9393;42.158;24.748;2023-04-15T12:14:42;4.88;;;2.70;;
18526;SDS011;9393;42.158;24.748;2023-04-15T12:17:46;6.28;;;2.50;;
18526;SDS011;9393;42.158;24.748;2023-04-15T12:20:52;6.07;;;2.25;;
18526;SDS011;9393;42.158;24.748;2023-04-15T12:23:56;4.70;;;2.20;;
18526;SDS011;9393;42.158;24.748;2023-04-15T12:27:05;4.10;;;2.00;;
18526;SDS011;9393;42.158;24.748;2023-04-15T12:30:11;6.53;;;2.20;;
18526;SDS011;9393;42.158;24.748;2023-04-15T12:33:15;3.83;;;1.98;;
18526;SDS011;9393;42.158;24.748;2023-04-15T12:36:19;6.20;;;2.22;;
18526;SDS011;9393;42.158;24.748;2023-04-15T12:39:23;5.65;;;2.35;;
18526;SDS011;9393;42.158;24.748;2023-04-15T12:42:31;3.50;;;1.98;;
18526;SDS011;9393;42.158;24.748;2023-04-15T12:45:36;4.50;;;1.75;;
18526;SDS011;9393;42.158;24.748;2023-04-15T12:48:40;3.90;;;1.85;;
18526;SDS011;9393;42.158;24.748;2023-04-15T12:51:43;5.30;;;1.85;;
18526;SDS011;9393;42.158;24.748;2023-04-15T12:54:47;5.68;;;1.75;;
18526;SDS011;9393;42.158;24.748;2023-04-15T12:57:51;3.17;;;1.70;;
18526;SDS011;9393;42.158;24.748;2023-04-15T13:00:56;3.78;;;1.83;;
18526;SDS011;9393;42.158;24.748;2023-04-15T13:04:00;5.13;;;1.70;;
18526;SDS011;9393;42.158;24.748;2023-04-15T13:07:04;6.30;;;2.30;;
18526;SDS011;9393;42.158;24.748;2023-04-15T13:10:08;4.68;;;1.75;;
18526;SDS011;9393;42.158;24.748;2023-04-15T13:13:12;7.35;;;1.77;;
18526;SDS011;9393;42.158;24.748;2023-04-15T13:16:18;4.13;;;1.60;;
18526;SDS011;9393;42.158;24.748;2023-04-15T13:19:22;2.58;;;1.67;;
18526;SDS011;9393;42.158;24.748;2023-04-15T13:22:26;5.93;;;2.13;;
18526;SDS011;9393;42.158;24.748;2023-04-15T13:25:30;5.53;;;1.85;;
18526;SDS011;9393;42.158;24.748;2023-04-15T13:28:33;6.68;;;1.50;;
18526;SDS011;9393;42.158;24.748;2023-04-15T13:31:38;4.10;;;1.77;;
18526;SDS011;9393;42.158;24.748;2023-04-15T13:34:42;8.70;;;1.63;;
18526;SDS011;9393;42.158;24.748;2023-04-15T13:37:45;6.20;;;2.10;;
18526;SDS011;9393;42.158;24.748;2023-04-15T13:40:49;3.38;;;2.20;;
18526;SDS011;9393;42.158;24.748;2023-04-15T13:43:53;5.90;;;2.10;;
18526;SDS011;9393;42.158;24.748;2023-04-15T13:46:58;5.53;;;2.10;;
18526;SDS011;9393;42.158;24.748;2023-04-15T13:50:02;4.63;;;1.90;;
18526;SDS011;9393;42.158;24.748;2023-04-15T13:53:07;2.60;;;1.60;;
18526;SDS011;9393;42.158;24.748;2023-04-15T13:56:11;5.00;;;1.70;;
18526;SDS011;9393;42.158;24.748;2023-04-15T13:59:15;3.35;;;1.75;;
18526;SDS011;9393;42.158;24.748;2023-04-15T14:02:20;4.38;;;1.90;;
18526;SDS011;9393;42.158;24.748;2023-04-15T14:05:25;11.10;;;2.20;;
18526;SDS011;9393;42.158;24.748;2023-04-15T14:08:28;6.30;;;1.83;;
18526;SDS011;9393;42.158;24.748;2023-04-15T14:11:32;3.50;;;1.70;;
18526;SDS011;9393;42.158;24.748;2023-04-15T14:14:37;4.32;;;1.80;;
18526;SDS011;9393;42.158;24.748;2023-04-15T14:17:42;3.25;;;1.77;;
18526;SDS011;9393;42.158;24.748;2023-04-15T14:20:46;4.82;;;1.83;;
18526;SDS011;9393;42.158;24.748;2023-04-15T14:23:50;4.35;;;1.90;;
18526;SDS011;9393;42.158;24.748;2023-04-15T14:26:54;7.25;;;1.80;;
18526;SDS011;9393;42.158;24.748;2023-04-15T14:29:58;3.88;;;1.92;;
18526;SDS011;9393;42.158;24.748;2023-04-15T14:33:03;6.07;;;2.00;;
18526;SDS011;9393;42.158;24.748;2023-04-15T14:36:08;8.40;;;2.10;;
18526;SDS011;9393;42.158;24.748;2023-04-15T14:39:12;5.18;;;1.88;;
18526;SDS011;9393;42.158;24.748;2023-04-15T14:42:16;7.15;;;2.05;;
18526;SDS011;9393;42.158;24.748;2023-04-15T14:45:20;4.15;;;1.90;;
18526;SDS011;9393;42.158;24.748;2023-04-15T14:48:25;4.55;;;2.08;;
18526;SDS011;9393;42.158;24.748;2023-04-15T14:51:29;10.15;;;2.08;;
18526;SDS011;9393;42.158;24.748;2023-04-15T14:54:33;4.78;;;1.92;;
18526;SDS011;9393;42.158;24.748;2023-04-15T14:57:37;4.70;;;1.85;;
18526;SDS011;9393;42.158;24.748;2023-04-15T15:00:42;6.90;;;2.10;;
18526;SDS011;9393;42.158;24.748;2023-04-15T15:03:47;5.10;;;2.08;;
18526;SDS011;9393;42.158;24.748;2023-04-15T15:06:52;5.75;;;1.73;;
18526;SDS011;9393;42.158;24.748;2023-04-15T15:09:55;4.22;;;1.85;;
18526;SDS011;9393;42.158;24.748;2023-04-15T15:12:59;5.45;;;2.30;;
18526;SDS011;9393;42.158;24.748;2023-04-15T15:16:04;4.13;;;2.05;;
18526;SDS011;9393;42.158;24.748;2023-04-15T15:19:10;5.90;;;2.10;;
18526;SDS011;9393;42.158;24.748;2023-04-15T15:22:14;5.45;;;2.47;;
18526;SDS011;9393;42.158;24.748;2023-04-15T15:25:21;6.47;;;2.55;;
18526;SDS011;9393;42.158;24.748;2023-04-15T15:28:25;9.80;;;2.88;;
18526;SDS011;9393;42.158;24.748;2023-04-15T15:31:29;8.48;;;2.90;;
18526;SDS011;9393;42.158;24.748;2023-04-15T15:34:35;5.07;;;2.50;;
18526;SDS011;9393;42.158;24.748;2023-04-15T15:37:38;5.93;;;2.22;;
18526;SDS011;9393;42.158;24.748;2023-04-15T15:40:44;6.47;;;3.08;;
18526;SDS011;9393;42.158;24.748;2023-04-15T15:43:48;7.78;;;2.30;;
18526;SDS011;9393;42.158;24.748;2023-04-15T15:46:52;5.15;;;2.45;;
18526;SDS011;9393;42.158;24.748;2023-04-15T15:49:57;5.78;;;2.38;;
18526;SDS011;9393;42.158;24.748;2023-04-15T15:53:05;7.95;;;2.50;;
18526;SDS011;9393;42.158;24.748;2023-04-15T15:56:09;5.90;;;3.00;;
18526;SDS011;9393;42.158;24.748;2023-04-15T15:59:13;7.38;;;2.97;;
18526;SDS011;9393;42.158;24.748;2023-04-15T16:02:17;5.75;;;2.72;;
18526;SDS011;9393;42.158;24.748;2023-04-15T16:05:43;8.10;;;3.33;;
18526;SDS011;9393;42.158;24.748;2023-04-15T16:08:48;9.07;;;3.05;;
18526;SDS011;9393;42.158;24.748;2023-04-15T16:11:51;7.72;;;3.20;;
18526;SDS011;9393;42.158;24.748;2023-04-15T16:14:55;6.90;;;2.90;;
18526;SDS011;9393;42.158;24.748;2023-04-15T16:17:59;7.93;;;3.63;;
18526;SDS011;9393;42.158;24.748;2023-04-15T16:21:04;8.85;;;3.38;;
18526;SDS011;9393;42.158;24.748;2023-04-15T16:24:08;7.65;;;3.20;;
18526;SDS011;9393;42.158;24.748;2023-04-15T16:27:13;7.35;;;3.20;;
18526;SDS011;9393;42.158;24.748;2023-04-15T16:30:17;7.15;;;3.20;;
18526;SDS011;9393;42.158;24.748;2023-04-15T16:33:22;5.68;;;3.13;;
18526;SDS011;9393;42.158;24.748;2023-04-15T16:36:28;7.32;;;3.10;;
18526;SDS011;9393;42.158;24.748;2023-04-15T16:39:32;5.60;;;3.10;;
18526;SDS011;9393;42.158;24.748;2023-04-15T16:42:36;7.88;;;3.60;;
18526;SDS011;9393;42.158;24.748;2023-04-15T16:45:40;7.95;;;3.95;;
18526;SDS011;9393;42.158;24.748;2023-04-15T16:48:45;7.45;;;3.80;;
18526;SDS011;9393;42.158;24.748;2023-04-15T16:51:50;5.38;;;3.70;;
18526;SDS011;9393;42.158;24.748;2023-04-15T16:54:55;7.80;;;3.30;;
18526;SDS011;9393;42.158;24.748;2023-04-15T16:57:59;8.57;;;3.38;;
18526;SDS011;9393;42.158;24.748;2023-04-15T17:01:05;8.38;;;3.65;;
18526;SDS011;9393;42.158;24.748;2023-04-15T17:04:10;8.68;;;3.70;;
18526;SDS011;9393;42.158;24.748;2023-04-15T17:07:15;11.97;;;3.53;;
18526;SDS011;9393;42.158;24.748;2023-04-15T17:10:19;7.77;;;2.83;;
18526;SDS011;9393;42.158;24.748;2023-04-15T17:13:24;8.50;;;3.27;;
18526;SDS011;9393;42.158;24.748;2023-04-15T17:16:28;6.27;;;4.00;;
18526;SDS011;9393;42.158;24.748;2023-04-15T17:19:31;9.73;;;4.27;;
18526;SDS011;9393;42.158;24.748;2023-04-15T17:22:36;10.07;;;4.30;;
18526;SDS011;9393;42.158;24.748;2023-04-15T17:25:40;9.47;;;4.00;;
18526;SDS011;9393;42.158;24.748;2023-04-15T17:28:44;6.37;;;3.53;;
18526;SDS011;9393;42.158;24.748;2023-04-15T17:31:48;8.17;;;3.50;;
18526;SDS011;9393;42.158;24.748;2023-04-15T17:34:52;7.77;;;3.80;;
18526;SDS011;9393;42.158;24.748;2023-04-15T17:37:57;11.70;;;4.53;;
18526;SDS011;9393;42.158;24.748;2023-04-15T17:41:00;9.10;;;5.20;;
18526;SDS011;9393;42.158;24.748;2023-04-15T17:44:05;9.40;;;4.70;;
18526;SDS011;9393;42.158;24.748;2023-04-15T17:47:09;9.07;;;4.37;;
18526;SDS011;9393;42.158;24.748;2023-04-15T17:50:13;8.73;;;4.60;;
18526;SDS011;9393;42.158;24.748;2023-04-15T17:53:18;13.30;;;4.50;;
18526;SDS011;9393;42.158;24.748;2023-04-15T17:56:21;10.63;;;4.77;;
18526;SDS011;9393;42.158;24.748;2023-04-15T17:59:26;12.33;;;4.40;;
18526;SDS011;9393;42.158;24.748;2023-04-15T18:02:29;10.57;;;4.17;;
18526;SDS011;9393;42.158;24.748;2023-04-15T18:05:37;9.30;;;4.30;;
18526;SDS011;9393;42.158;24.748;2023-04-15T18:08:44;9.13;;;3.70;;
18526;SDS011;9393;42.158;24.748;2023-04-15T18:11:48;6.27;;;3.53;;
18526;SDS011;9393;42.158;24.748;2023-04-15T18:14:52;6.30;;;3.40;;
18526;SDS011;9393;42.158;24.748;2023-04-15T18:17:55;11.50;;;4.10;;
18526;SDS011;9393;42.158;24.748;2023-04-15T18:21:00;7.80;;;3.87;;
18526;SDS011;9393;42.158;24.748;2023-04-15T18:24:05;6.60;;;3.97;;
18526;SDS011;9393;42.158;24.748;2023-04-15T18:27:09;8.77;;;4.40;;
18526;SDS011;9393;42.158;24.748;2023-04-15T18:30:13;14.57;;;5.23;;
18526;SDS011;9393;42.158;24.748;2023-04-15T18:33:16;10.33;;;4.60;;